Time;durP1;ratioP1;P1;durP2;ratioP2;P2;SDS_P1;SDS_P2;PMS_P1;PMS_P2;Temp;Humidity;BMP_temperature;BMP_pressure;BME280_temperature;BME280_humidity;BME280_pressure;Samples;Min_cycle;Max_cycle;Signal;HPM_P1;HPM_P2
2023/12/18 00:00:33;;;;;;;18.98;8.90;;;;;;;4.31;100.00;103254.84;5023283;28;20064;-77
2023/12/18 00:02:58;;;;;;;20.88;8.55;;;;;;;4.37;100.00;103264.16;5019487;28;20123;-77
2023/12/18 00:05:24;;;;;;;18.00;9.13;;;;;;;4.36;100.00;103251.91;4986351;28;20177;-77
2023/12/18 00:07:49;;;;;;;21.08;9.30;;;;;;;4.46;100.00;103257.47;4986916;28;20037;-77
2023/12/18 00:10:15;;;;;;;20.75;9.93;;;;;;;4.48;100.00;103259.09;5014205;28;20068;-77
2023/12/18 00:12:41;;;;;;;19.77;8.48;;;;;;;4.50;100.00;103254.53;5021007;28;20052;-77
2023/12/18 00:15:07;;;;;;;18.15;8.70;;;;;;;4.49;100.00;103249.34;5019766;28;20038;-77
2023/12/18 00:17:32;;;;;;;19.10;9.52;;;;;;;4.56;100.00;103254.16;5018950;28;20033;-77
2023/12/18 00:19:58;;;;;;;17.42;8.63;;;;;;;4.56;100.00;103250.66;5014048;28;20124;-77
2023/12/18 00:22:24;;;;;;;19.55;9.23;;;;;;;4.56;100.00;103253.31;5009456;28;20033;-77
2023/12/18 00:24:49;;;;;;;20.20;9.20;;;;;;;4.59;100.00;103247.81;4988819;28;20040;-77
2023/12/18 00:27:15;;;;;;;20.27;7.70;;;;;;;4.55;100.00;103239.22;5018451;28;20080;-77
2023/12/18 00:29:40;;;;;;;20.83;10.65;;;;;;;4.56;100.00;103242.75;5010947;28;20100;-77
2023/12/18 00:32:06;;;;;;;18.98;7.60;;;;;;;4.58;100.00;103240.81;5030227;28;20064;-77
2023/12/18 00:34:31;;;;;;;20.42;8.98;;;;;;;4.62;100.00;103242.34;5029341;28;20038;-77
2023/12/18 00:36:57;;;;;;;20.27;9.05;;;;;;;4.63;100.00;103237.91;5039391;28;20162;-77
2023/12/18 00:39:22;;;;;;;20.23;10.00;;;;;;;4.59;100.00;103229.31;5019153;28;20022;-77
2023/12/18 00:41:48;;;;;;;18.52;8.85;;;;;;;4.65;100.00;103230.72;4998287;28;20487;-77
2023/12/18 00:44:13;;;;;;;19.23;9.60;;;;;;;4.64;100.00;103234.28;5041695;28;20037;-77
2023/12/18 00:46:38;;;;;;;16.77;8.68;;;;;;;4.64;100.00;103237.81;5038530;28;20064;-77
2023/12/18 00:49:04;;;;;;;19.52;8.38;;;;;;;4.65;100.00;103234.22;5036628;28;20041;-77
2023/12/18 00:51:29;;;;;;;21.83;8.95;;;;;;;4.67;100.00;103224.38;5037701;28;20041;-77
2023/12/18 00:53:55;;;;;;;23.77;10.13;;;;;;;4.69;100.00;103227.78;5039236;28;20456;-77
2023/12/18 00:56:20;;;;;;;20.70;9.43;;;;;;;4.64;100.00;103221.06;5039297;28;20033;-77
2023/12/18 00:58:45;;;;;;;19.80;8.68;;;;;;;4.69;100.00;103221.63;5002697;28;20033;-77
2023/12/18 01:01:11;;;;;;;27.02;9.07;;;;;;;4.69;100.00;103222.50;5018031;28;20084;-77
2023/12/18 01:03:37;;;;;;;22.52;10.25;;;;;;;4.72;100.00;103230.22;5034609;28;20032;-77
2023/12/18 01:06:05;;;;;;;22.75;10.63;;;;;;;4.73;100.00;103223.97;5021834;28;20061;-77
2023/12/18 01:08:30;;;;;;;20.17;8.35;;;;;;;4.70;100.00;103216.25;5017299;28;20030;-77
2023/12/18 01:10:55;;;;;;;22.45;10.05;;;;;;;4.72;100.00;103217.00;5038173;28;20025;-77
2023/12/18 01:13:21;;;;;;;22.83;10.55;;;;;;;4.74;100.00;103220.41;5003958;28;20041;-77
2023/12/18 01:15:47;;;;;;;23.17;9.85;;;;;;;4.74;100.00;103217.75;5021175;28;20027;-77
2023/12/18 01:18:12;;;;;;;22.90;9.18;;;;;;;4.72;100.00;103208.25;5032826;28;20029;-77
2023/12/18 01:20:37;;;;;;;21.00;10.30;;;;;;;4.74;100.00;103207.19;5040031;28;20037;-77
2023/12/18 01:23:03;;;;;;;23.08;10.23;;;;;;;4.70;100.00;103203.03;5035720;28;21005;-77
2023/12/18 01:25:28;;;;;;;20.58;9.57;;;;;;;4.69;100.00;103211.94;5035847;28;20152;-77
2023/12/18 01:27:54;;;;;;;22.98;10.95;;;;;;;4.71;100.00;103195.94;5022904;28;20028;-77
2023/12/18 01:30:19;;;;;;;21.63;8.80;;;;;;;4.76;100.00;103217.66;5043264;28;20497;-77
2023/12/18 01:32:44;;;;;;;24.92;10.30;;;;;;;4.80;100.00;103208.59;5023616;28;20026;-77
2023/12/18 01:35:10;;;;;;;21.98;9.27;;;;;;;4.72;100.00;103209.09;5036163;28;20140;-77
2023/12/18 01:37:35;;;;;;;21.08;10.73;;;;;;;4.76;100.00;103209.72;5036881;28;20055;-77
2023/12/18 01:40:01;;;;;;;19.00;9.05;;;;;;;4.73;100.00;103202.00;5036579;28;20036;-77
2023/12/18 01:42:26;;;;;;;22.88;10.30;;;;;;;4.79;100.00;103213.03;5027869;28;20037;-77
2023/12/18 01:44:51;;;;;;;21.45;9.18;;;;;;;4.75;100.00;103208.03;5041778;28;20112;-77
2023/12/18 01:47:17;;;;;;;24.42;11.55;;;;;;;4.82;100.00;103217.25;5039740;28;20083;-77
2023/12/18 01:49:43;;;;;;;18.33;8.88;;;;;;;4.76;100.00;103207.91;5041377;28;20029;-77
2023/12/18 01:52:08;;;;;;;22.42;9.98;;;;;;;4.80;100.00;103212.06;5038679;28;20021;-77
2023/12/18 01:54:34;;;;;;;23.60;10.88;;;;;;;4.84;100.00;103210.91;5005696;28;20037;-77
2023/12/18 01:57:02;;;;;;;27.42;10.65;;;;;;;4.84;100.00;103212.69;5045205;28;20480;-77
2023/12/18 01:59:28;;;;;;;21.13;10.60;;;;;;;4.86;100.00;103215.25;5039480;28;20033;-77
2023/12/18 02:01:53;;;;;;;21.77;10.20;;;;;;;4.87;100.00;103212.50;5046270;28;20032;-77
2023/12/18 02:04:19;;;;;;;20.55;9.40;;;;;;;4.89;100.00;103213.25;5022827;28;20029;-77
2023/12/18 02:06:45;;;;;;;26.08;11.27;;;;;;;4.92;100.00;103205.13;5026103;28;20064;-77
2023/12/18 02:09:11;;;;;;;25.25;10.27;;;;;;;4.91;100.00;103198.13;5019652;28;20034;-77
2023/12/18 02:11:37;;;;;;;21.80;10.40;;;;;;;4.93;100.00;103193.59;5037859;28;20029;-77
2023/12/18 02:14:02;;;;;;;21.58;9.85;;;;;;;4.91;100.00;103187.56;5024035;28;20457;-77
2023/12/18 02:16:28;;;;;;;24.98;11.63;;;;;;;4.92;100.00;103188.41;5006000;28;20120;-77
2023/12/18 02:18:54;;;;;;;23.95;10.48;;;;;;;4.97;100.00;103194.22;5036432;28;20400;-77
2023/12/18 02:21:21;;;;;;;19.75;9.00;;;;;;;4.98;100.00;103195.94;5037884;28;20048;-77
2023/12/18 02:23:50;;;;;;;20.38;9.88;;;;;;;4.98;100.00;103193.31;5022059;28;20455;-77
2023/12/18 02:26:16;;;;;;;20.92;9.75;;;;;;;4.99;100.00;103193.19;5038753;28;20029;-77
2023/12/18 02:28:44;;;;;;;30.10;10.90;;;;;;;4.97;100.00;103175.72;5036291;28;20045;-77
2023/12/18 02:31:15;;;;;;;22.38;10.27;;;;;;;4.97;100.00;103175.72;5036554;28;20068;-77
2023/12/18 02:33:41;;;;;;;23.88;9.68;;;;;;;5.04;100.00;103184.94;5040517;28;20109;-77
2023/12/18 02:36:07;;;;;;;26.17;10.15;;;;;;;5.05;100.00;103182.19;5047962;28;20531;-77
2023/12/18 02:38:33;;;;;;;23.42;10.25;;;;;;;5.05;100.00;103186.63;5039918;28;20120;-77
2023/12/18 02:40:58;;;;;;;24.35;10.32;;;;;;;5.06;100.00;103183.06;5018587;28;20116;-76
2023/12/18 02:43:24;;;;;;;21.73;11.60;;;;;;;5.07;100.00;103175.97;5043478;28;20110;-76
2023/12/18 02:45:49;;;;;;;21.77;10.05;;;;;;;5.07;100.00;103175.97;5043730;28;20033;-77
2023/12/18 02:48:14;;;;;;;23.67;10.63;;;;;;;5.07;100.00;103173.31;5042178;28;20119;-77
2023/12/18 02:50:40;;;;;;;25.58;10.07;;;;;;;5.05;100.00;103166.31;5035551;28;20030;-77
2023/12/18 02:53:05;;;;;;;25.73;12.57;;;;;;;5.05;100.00;103168.13;5031121;28;20473;-77
2023/12/18 02:55:30;;;;;;;22.83;11.98;;;;;;;5.06;100.00;103156.63;5034554;28;20455;-77
2023/12/18 02:57:56;;;;;;;21.45;10.27;;;;;;;5.05;100.00;103168.97;5020127;28;20029;-77
2023/12/18 03:00:21;;;;;;;21.90;10.35;;;;;;;5.07;100.00;103165.38;5040741;28;20033;-77
2023/12/18 03:02:47;;;;;;;20.73;9.05;;;;;;;5.08;100.00;103159.13;5038848;28;20848;-77
2023/12/18 03:05:14;;;;;;;22.77;9.57;;;;;;;5.10;100.00;103159.88;5038763;28;20087;-77
2023/12/18 03:07:39;;;;;;;22.02;10.93;;;;;;;5.08;100.00;103154.69;5007649;28;20393;-77
2023/12/18 03:10:05;;;;;;;21.98;10.68;;;;;;;5.08;100.00;103164.44;5037546;28;20030;-77
2023/12/18 03:12:30;;;;;;;23.50;11.15;;;;;;;5.08;100.00;103156.50;5021692;28;20107;-77
2023/12/18 03:14:56;;;;;;;25.52;11.30;;;;;;;5.09;100.00;103153.75;5037714;28;20121;-77
2023/12/18 03:17:21;;;;;;;19.30;8.90;;;;;;;5.10;100.00;103151.94;5042133;28;20151;-77
2023/12/18 03:19:46;;;;;;;19.17;10.77;;;;;;;5.12;100.00;103158.84;5022856;28;20072;-77
2023/12/18 03:22:13;;;;;;;26.23;12.73;;;;;;;5.10;100.00;103155.44;5018589;28;20040;-77
2023/12/18 03:24:39;;;;;;;22.25;9.63;;;;;;;5.08;100.00;103152.03;5015453;28;20029;-77
2023/12/18 03:27:05;;;;;;;24.25;10.00;;;;;;;5.13;100.00;103157.88;5013893;28;20037;-77
2023/12/18 03:29:30;;;;;;;22.77;9.77;;;;;;;5.15;100.00;103163.91;5036753;28;20534;-77
2023/12/18 03:31:55;;;;;;;22.73;10.35;;;;;;;5.13;100.00;103151.75;5039885;28;20037;-77
2023/12/18 03:34:21;;;;;;;20.92;9.95;;;;;;;5.17;100.00;103158.53;5020491;28;20072;-77
2023/12/18 03:36:46;;;;;;;24.95;11.55;;;;;;;5.14;100.00;103159.59;5018890;28;20040;-77
2023/12/18 03:39:11;;;;;;;31.05;12.57;;;;;;;5.13;100.00;103142.00;5039668;28;20029;-77
2023/12/18 03:41:37;;;;;;;22.77;11.15;;;;;;;5.17;100.00;103155.88;5016196;28;20029;-77
2023/12/18 03:44:02;;;;;;;29.27;12.25;;;;;;;5.12;100.00;103140.31;5034304;28;20067;-77
2023/12/18 03:46:27;;;;;;;20.52;9.75;;;;;;;5.15;100.00;103157.78;5036505;28;20231;-77
2023/12/18 03:48:53;;;;;;;21.90;11.10;;;;;;;5.15;100.00;103161.25;5042922;28;20495;-77
2023/12/18 03:51:18;;;;;;;25.23;11.57;;;;;;;5.07;100.00;103137.13;5020131;28;20510;-77
2023/12/18 03:53:43;;;;;;;24.13;10.98;;;;;;;5.15;100.00;103155.13;5028230;28;20029;-77
2023/12/18 03:56:09;;;;;;;27.40;11.20;;;;;;;5.16;100.00;103162.09;5014525;28;20041;-83
2023/12/18 03:58:35;;;;;;;26.83;13.68;;;;;;;5.18;100.00;103160.22;5006954;28;20067;-84
2023/12/18 04:01:00;;;;;;;25.90;11.75;;;;;;;5.11;100.00;103159.78;5038324;28;20033;-83
2023/12/18 04:03:26;;;;;;;21.45;10.65;;;;;;;5.19;100.00;103167.22;4997563;28;20045;-83
2023/12/18 04:05:51;;;;;;;24.73;11.20;;;;;;;5.20;100.00;103163.59;5037776;28;20021;-83
2023/12/18 04:08:16;;;;;;;23.23;10.90;;;;;;;5.20;100.00;103158.31;5038969;28;20040;-83
2023/12/18 04:10:42;;;;;;;24.63;12.60;;;;;;;5.19;100.00;103159.28;5036114;28;20491;-83
2023/12/18 04:13:08;;;;;;;24.33;11.35;;;;;;;5.18;100.00;103153.13;5039024;28;20068;-83
2023/12/18 04:15:33;;;;;;;24.38;11.45;;;;;;;5.20;100.00;103153.03;5033205;28;20600;-83
2023/12/18 04:17:58;;;;;;;27.83;12.43;;;;;;;5.20;100.00;103156.50;5034719;28;20049;-83
2023/12/18 04:20:24;;;;;;;24.80;13.25;;;;;;;5.21;100.00;103147.63;5021449;28;20033;-83
2023/12/18 04:22:49;;;;;;;31.40;11.23;;;;;;;5.20;100.00;103148.56;5037725;28;20021;-83
2023/12/18 04:25:15;;;;;;;24.90;11.60;;;;;;;5.19;100.00;103154.81;5039006;28;20036;-82
2023/12/18 04:27:41;;;;;;;25.30;12.35;;;;;;;5.22;100.00;103151.13;5020410;28;20033;-82
2023/12/18 04:30:07;;;;;;;25.42;12.57;;;;;;;5.21;100.00;103142.34;5037870;28;20041;-83
2023/12/18 04:32:32;;;;;;;27.15;11.80;;;;;;;5.18;100.00;103134.59;5035446;28;20080;-83
2023/12/18 04:34:57;;;;;;;27.00;12.15;;;;;;;5.22;100.00;103138.75;5035177;28;20068;-83
2023/12/18 04:37:23;;;;;;;26.13;10.55;;;;;;;5.22;100.00;103136.09;5038917;28;20040;-83
2023/12/18 04:39:48;;;;;;;25.17;10.98;;;;;;;5.21;100.00;103139.72;5036241;28;20052;-83
2023/12/18 04:42:13;;;;;;;31.75;14.70;;;;;;;5.16;100.00;103138.28;5037954;28;20521;-83
2023/12/18 04:44:39;;;;;;;26.88;11.65;;;;;;;5.19;100.00;103136.31;5019233;28;20034;-83
2023/12/18 04:47:04;;;;;;;25.40;11.18;;;;;;;5.18;100.00;103139.88;5034715;28;20021;-83
2023/12/18 04:49:30;;;;;;;25.10;10.90;;;;;;;5.21;100.00;103144.13;5038679;28;20029;-83
2023/12/18 04:51:55;;;;;;;24.35;12.02;;;;;;;5.20;100.00;103145.94;5037642;28;20033;-83
2023/12/18 04:54:20;;;;;;;23.33;10.45;;;;;;;5.14;100.00;103133.13;5038312;28;20061;-83
2023/12/18 04:56:46;;;;;;;25.95;12.13;;;;;;;5.18;100.00;103131.09;5038137;28;20034;-83
2023/12/18 04:59:11;;;;;;;26.77;11.70;;;;;;;5.21;100.00;103130.91;5035710;28;20037;-83
2023/12/18 05:01:37;;;;;;;23.27;11.27;;;;;;;5.21;100.00;103130.91;5038377;28;20029;-82
2023/12/18 05:04:03;;;;;;;28.60;11.82;;;;;;;5.21;100.00;103136.19;5042096;28;20468;-82
2023/12/18 05:06:28;;;;;;;25.25;12.32;;;;;;;5.15;100.00;103126.88;5042282;28;20381;-83
2023/12/18 05:08:55;;;;;;;22.60;10.88;;;;;;;5.20;100.00;103132.69;5042286;28;20033;-82
2023/12/18 05:11:22;;;;;;;28.02;12.20;;;;;;;5.16;100.00;103125.06;5024127;28;20495;-82
2023/12/18 05:13:48;;;;;;;26.63;11.38;;;;;;;5.19;100.00;103136.31;5031654;28;20044;-82
2023/12/18 05:16:14;;;;;;;27.25;12.38;;;;;;;5.18;100.00;103134.59;5040463;28;20029;-82
2023/12/18 05:18:39;;;;;;;26.20;11.63;;;;;;;5.18;100.00;103131.94;5042913;28;20072;-82
2023/12/18 05:21:05;;;;;;;24.70;11.90;;;;;;;5.18;100.00;103133.75;5041872;28;20062;-82
2023/12/18 05:23:30;;;;;;;26.30;11.57;;;;;;;5.18;100.00;103129.31;5037006;28;20112;-82
2023/12/18 05:25:56;;;;;;;28.58;10.55;;;;;;;5.17;100.00;103122.34;5034904;28;20045;-82
2023/12/18 05:28:21;;;;;;;26.60;13.15;;;;;;;5.12;100.00;103120.97;5041880;28;20064;-82
2023/12/18 05:30:47;;;;;;;29.65;13.38;;;;;;;5.16;100.00;103125.94;5024587;28;20120;-82
2023/12/18 05:33:12;;;;;;;28.58;12.40;;;;;;;5.15;100.00;103134.81;5038232;28;20051;-82
2023/12/18 05:35:37;;;;;;;25.02;11.02;;;;;;;5.19;100.00;103130.19;5038663;28;20033;-82
2023/12/18 05:38:03;;;;;;;29.92;11.85;;;;;;;5.17;100.00;103129.44;5040676;28;20448;-82
2023/12/18 05:40:28;;;;;;;25.33;10.73;;;;;;;5.21;100.00;103134.41;5036607;28;20052;-82
2023/12/18 05:42:54;;;;;;;31.33;12.10;;;;;;;5.18;100.00;103134.59;5040185;28;20064;-82
2023/12/18 05:45:19;;;;;;;26.48;11.85;;;;;;;5.18;100.00;103131.94;5038930;28;20423;-82
2023/12/18 05:47:45;;;;;;;29.30;10.48;;;;;;;5.19;100.00;103131.03;5041605;28;20032;-82
2023/12/18 05:50:11;;;;;;;24.83;11.55;;;;;;;5.20;100.00;103130.06;5024881;28;20464;-82
2023/12/18 05:52:37;;;;;;;24.73;11.93;;;;;;;5.22;100.00;103141.38;5041886;28;20029;-82
2023/12/18 05:55:03;;;;;;;24.67;11.95;;;;;;;5.14;100.00;103135.78;5041776;28;20037;-82
2023/12/18 05:57:28;;;;;;;26.52;13.05;;;;;;;5.21;100.00;103142.34;5024633;28;20804;-82
2023/12/18 05:59:54;;;;;;;31.50;12.10;;;;;;;5.20;100.00;103135.34;5034847;28;20431;-82
2023/12/18 06:02:19;;;;;;;24.73;12.18;;;;;;;5.20;100.00;103138.00;5039679;28;20037;-82
2023/12/18 06:04:44;;;;;;;26.25;11.77;;;;;;;5.17;100.00;103132.06;5036585;28;20029;-82
2023/12/18 06:07:10;;;;;;;29.23;12.65;;;;;;;5.22;100.00;103137.91;5038870;28;20105;-82
2023/12/18 06:09:36;;;;;;;21.83;10.82;;;;;;;5.17;100.00;103124.97;5033191;28;20029;-82
2023/12/18 06:12:02;;;;;;;29.45;14.23;;;;;;;5.21;100.00;103126.47;5038067;28;20032;-76
2023/12/18 06:14:27;;;;;;;28.98;12.07;;;;;;;5.20;100.00;103126.56;5045132;28;20166;-76
2023/12/18 06:16:53;;;;;;;28.08;10.77;;;;;;;5.21;100.00;103134.41;5039093;28;20036;-76
2023/12/18 06:19:18;;;;;;;26.67;13.10;;;;;;;5.21;100.00;103125.59;5039621;28;20073;-77
2023/12/18 06:21:43;;;;;;;33.58;13.95;;;;;;;5.21;100.00;103125.59;5036327;28;20030;-76
2023/12/18 06:24:09;;;;;;;25.48;13.02;;;;;;;5.22;100.00;103129.97;5014298;28;20462;-76
2023/12/18 06:26:34;;;;;;;29.17;11.98;;;;;;;5.22;100.00;103132.59;5032524;28;20056;-76
2023/12/18 06:28:59;;;;;;;27.02;11.68;;;;;;;5.20;100.00;103122.13;5037805;28;20503;-77
2023/12/18 06:31:25;;;;;;;26.88;10.48;;;;;;;5.21;100.00;103134.41;5035392;28;20145;-76
2023/12/18 06:33:50;;;;;;;25.20;11.63;;;;;;;5.21;100.00;103130.91;5006274;28;20033;-77
2023/12/18 06:36:19;;;;;;;28.90;11.95;;;;;;;5.22;100.00;103127.31;5003392;28;20090;-76
2023/12/18 06:38:48;;;;;;;35.65;12.00;;;;;;;5.24;100.00;103133.34;5040394;28;20166;-82
2023/12/18 06:41:13;;;;;;;24.05;12.50;;;;;;;5.25;100.00;103133.22;5040637;28;20403;-82
2023/12/18 06:43:39;;;;;;;30.20;11.70;;;;;;;5.24;100.00;103125.41;5040344;28;20040;-82
2023/12/18 06:46:05;;;;;;;27.55;12.60;;;;;;;5.26;100.00;103134.91;5036312;28;20028;-82
2023/12/18 06:48:32;;;;;;;25.65;12.93;;;;;;;5.26;100.00;103132.28;5038907;28;20034;-82
2023/12/18 06:50:57;;;;;;;26.50;13.00;;;;;;;5.26;100.00;103123.50;5033164;28;20048;-82
2023/12/18 06:53:22;;;;;;;25.48;12.15;;;;;;;5.30;100.00;103126.78;5017895;28;20028;-82
2023/12/18 06:55:48;;;;;;;25.77;10.38;;;;;;;5.31;100.00;103128.47;5033998;28;20034;-82
2023/12/18 06:58:13;;;;;;;38.55;14.52;;;;;;;5.28;100.00;103124.25;5024584;28;20032;-82
2023/12/18 07:00:38;;;;;;;25.63;12.05;;;;;;;5.33;100.00;103127.41;5039834;28;20040;-81
2023/12/18 07:03:04;;;;;;;25.10;12.60;;;;;;;5.25;100.00;103105.94;5031525;28;20034;-83
2023/12/18 07:05:29;;;;;;;26.05;12.73;;;;;;;5.33;100.00;103122.13;5037687;28;20162;-83
2023/12/18 07:07:56;;;;;;;26.33;11.57;;;;;;;5.34;100.00;103139.69;5039124;28;20041;-82
2023/12/18 07:10:22;;;;;;;28.88;13.25;;;;;;;5.35;100.00;103138.75;5032485;28;20135;-83
2023/12/18 07:12:47;;;;;;;26.83;11.43;;;;;;;5.35;100.00;103140.56;5038728;28;20112;-82
2023/12/18 07:15:12;;;;;;;25.08;11.23;;;;;;;5.35;100.00;103143.19;5035413;28;20113;-83
2023/12/18 07:17:38;;;;;;;25.83;10.93;;;;;;;5.33;100.00;103143.28;5034855;28;20033;-81
2023/12/18 07:20:05;;;;;;;24.60;13.20;;;;;;;5.36;100.00;103139.59;5035077;28;20036;-82
2023/12/18 07:22:32;;;;;;;27.83;12.85;;;;;;;5.36;100.00;103143.06;5039684;28;20034;-82
2023/12/18 07:24:58;;;;;;;24.85;12.07;;;;;;;5.34;100.00;103134.38;5037996;28;20180;-82
2023/12/18 07:27:23;;;;;;;34.72;15.32;;;;;;;5.35;100.00;103138.75;5021165;28;20128;-83
2023/12/18 07:29:48;;;;;;;24.85;12.68;;;;;;;5.33;100.00;103131.88;5036722;28;20123;-83
2023/12/18 07:32:14;;;;;;;34.15;12.60;;;;;;;5.36;100.00;103136.94;5025571;28;20029;-83
2023/12/18 07:34:39;;;;;;;23.13;11.20;;;;;;;5.32;100.00;103138.09;5013636;28;20137;-83
2023/12/18 07:37:05;;;;;;;26.33;12.35;;;;;;;5.36;100.00;103137.78;5036470;28;20024;-83
2023/12/18 07:39:31;;;;;;;32.55;12.73;;;;;;;5.33;100.00;103140.66;5032555;28;20815;-83
2023/12/18 07:41:56;;;;;;;29.02;12.63;;;;;;;5.37;100.00;103149.22;5022930;28;20056;-82
2023/12/18 07:44:21;;;;;;;28.40;12.98;;;;;;;5.36;100.00;103142.22;5038783;28;20494;-82
2023/12/18 07:46:50;;;;;;;31.35;14.52;;;;;;;5.33;100.00;103142.44;5020361;28;20033;-82
2023/12/18 07:49:16;;;;;;;25.42;10.88;;;;;;;5.32;100.00;103144.25;5036803;28;20037;-82
2023/12/18 07:51:41;;;;;;;29.92;13.95;;;;;;;5.32;100.00;103138.97;5034417;28;20587;-83
2023/12/18 07:54:06;;;;;;;27.30;13.27;;;;;;;5.31;100.00;103139.06;5037753;28;20037;-82
2023/12/18 07:56:32;;;;;;;25.38;13.25;;;;;;;5.31;100.00;103131.97;5038639;28;20033;-81
2023/12/18 07:58:57;;;;;;;29.92;13.02;;;;;;;5.32;100.00;103133.69;5022953;28;20036;-82
2023/12/18 08:01:22;;;;;;;28.85;12.50;;;;;;;5.33;100.00;103134.50;5038464;28;20029;-81
2023/12/18 08:03:48;;;;;;;32.75;13.20;;;;;;;5.33;100.00;103129.22;5036121;28;20120;-82
2023/12/18 08:06:13;;;;;;;30.25;13.30;;;;;;;5.33;100.00;103127.41;5038666;28;20090;-81
2023/12/18 08:08:39;;;;;;;29.20;15.02;;;;;;;5.33;100.00;103132.72;5035442;28;20533;-81
2023/12/18 08:11:04;;;;;;;36.10;15.68;;;;;;;5.31;100.00;103117.88;5022582;28;20030;-82
2023/12/18 08:13:30;;;;;;;27.55;12.77;;;;;;;5.37;100.00;103133.34;5030730;28;20036;-82
2023/12/18 08:15:55;;;;;;;29.88;12.82;;;;;;;5.38;100.00;103129.75;5017601;28;20078;-82
2023/12/18 08:18:20;;;;;;;28.42;13.90;;;;;;;5.39;100.00;103126.13;5040174;28;20476;-83
2023/12/18 08:20:46;;;;;;;29.70;11.90;;;;;;;5.39;100.00;103119.03;5037525;28;20655;-83
2023/12/18 08:23:11;;;;;;;34.85;13.25;;;;;;;5.43;100.00;103119.69;5023147;28;20487;-83
2023/12/18 08:25:36;;;;;;;25.77;10.77;;;;;;;5.49;100.00;103124.56;5021965;28;20079;-83
2023/12/18 08:28:02;;;;;;;26.90;13.05;;;;;;;5.53;100.00;103114.59;5022252;28;20033;-82
2023/12/18 08:30:27;;;;;;;31.17;12.80;;;;;;;5.52;100.00;103118.19;5038567;28;20447;-81
2023/12/18 08:32:54;;;;;;;27.95;12.60;;;;;;;5.56;100.00;103112.59;5017603;28;20036;-79
2023/12/18 08:35:19;;;;;;;34.70;13.85;;;;;;;5.60;100.00;103121.16;5036690;28;20171;-82
2023/12/18 08:37:44;;;;;;;28.85;13.00;;;;;;;5.66;100.00;103115.44;5012983;28;20116;-77
2023/12/18 08:40:10;;;;;;;32.80;12.20;;;;;;;5.67;100.00;103117.97;5038612;28;20468;-82
2023/12/18 08:42:35;;;;;;;31.42;14.00;;;;;;;5.72;100.00;103115.00;5036315;28;20036;-83
2023/12/18 08:45:01;;;;;;;29.75;13.23;;;;;;;5.77;100.00;103112.88;5031021;28;20147;-82
2023/12/18 08:47:26;;;;;;;41.28;14.68;;;;;;;5.78;100.00;103105.78;5034818;28;20033;-83
2023/12/18 08:49:52;;;;;;;35.13;16.02;;;;;;;5.82;100.00;103109.91;5035705;28;20017;-84
2023/12/18 08:52:17;;;;;;;27.42;12.13;;;;;;;5.83;100.00;103107.13;5014659;28;20037;-78
2023/12/18 08:54:43;;;;;;;33.40;14.23;;;;;;;5.85;100.00;103097.28;5037227;28;20029;-82
2023/12/18 08:57:08;;;;;;;24.92;12.13;;;;;;;5.85;100.00;103099.09;5010490;28;20038;-82
2023/12/18 08:59:34;;;;;;;28.65;14.05;;;;;;;5.87;100.00;103095.38;5028050;28;20116;-82
2023/12/18 09:01:59;;;;;;;31.98;14.98;;;;;;;5.89;100.00;103100.53;5036587;28;20044;-83
2023/12/18 09:04:25;;;;;;;30.95;14.75;;;;;;;5.87;100.00;103107.78;5020619;28;20033;-83
2023/12/18 09:06:50;;;;;;;30.40;13.68;;;;;;;5.86;100.00;103103.41;5038168;28;20040;-82
2023/12/18 09:09:15;;;;;;;31.85;14.30;;;;;;;5.85;100.00;103097.28;5035638;28;20035;-82
2023/12/18 09:11:41;;;;;;;29.98;15.18;;;;;;;5.83;100.00;103099.19;5034410;28;20061;-83
2023/12/18 09:14:07;;;;;;;38.78;16.58;;;;;;;5.87;100.00;103099.84;5037160;28;20116;-84
2023/12/18 09:16:32;;;;;;;32.50;15.32;;;;;;;5.87;100.00;103094.53;5018876;28;20030;-84
2023/12/18 09:18:58;;;;;;;28.63;15.05;;;;;;;5.93;100.00;103102.91;5018963;28;20037;-83
2023/12/18 09:21:23;;;;;;;31.65;14.27;;;;;;;5.95;100.00;103105.44;5033384;28;20039;-83
2023/12/18 09:23:49;;;;;;;33.22;14.20;;;;;;;5.99;100.00;103098.13;5017746;28;20116;-84
2023/12/18 09:26:15;;;;;;;33.42;14.20;;;;;;;6.03;100.00;103103.09;5017230;28;20037;-84
2023/12/18 09:28:42;;;;;;;34.28;14.85;;;;;;;6.05;100.00;103095.88;5034123;28;20111;-84
2023/12/18 09:31:07;;;;;;;31.35;16.27;;;;;;;5.97;100.00;103092.91;5031239;28;20121;-84
2023/12/18 09:33:33;;;;;;;32.20;13.13;;;;;;;6.05;100.00;103102.97;4996313;28;20215;-84
2023/12/18 09:35:59;;;;;;;30.02;14.32;;;;;;;6.02;100.00;103093.44;5036372;28;20438;-84
2023/12/18 09:38:25;;;;;;;27.77;12.32;;;;;;;6.07;100.00;103112.50;5036748;28;20065;-83
2023/12/18 09:40:51;;;;;;;30.00;13.13;;;;;;;6.10;100.00;103120.25;5037699;28;20118;-83
2023/12/18 09:43:17;;;;;;;25.33;13.43;;;;;;;6.12;100.00;103118.28;5019571;28;20044;-83
2023/12/18 09:45:46;;;;;;;31.75;14.75;;;;;;;6.04;100.00;103104.78;5026745;28;20045;-83
2023/12/18 09:48:11;;;;;;;26.63;12.07;;;;;;;6.01;100.00;103101.50;5039050;28;20025;-84
2023/12/18 09:50:37;;;;;;;35.08;15.23;;;;;;;6.03;100.00;103105.75;5040587;28;20132;-84
2023/12/18 09:53:10;;;;;;;26.95;13.45;;;;;;;6.03;100.00;103103.09;5042102;28;20148;-84
2023/12/18 09:55:36;;;;;;;32.78;14.45;;;;;;;6.04;100.00;103112.72;5035249;28;20021;-84
2023/12/18 09:58:02;;;;;;;34.33;15.23;;;;;;;6.05;100.00;103108.25;5033747;28;20033;-83
2023/12/18 10:00:28;;;;;;;28.60;13.70;;;;;;;6.05;100.00;103111.78;5033197;28;20404;-84
2023/12/18 10:02:55;;;;;;;31.13;16.38;;;;;;;6.06;100.00;103108.16;5034635;28;20035;-84
2023/12/18 10:05:21;;;;;;;27.77;11.23;;;;;;;6.08;100.00;103100.94;5041445;28;20147;-84
2023/12/18 10:07:46;;;;;;;28.13;13.70;;;;;;;6.02;100.00;103088.13;5025480;28;20088;-84
2023/12/18 10:10:12;;;;;;;27.00;12.07;;;;;;;6.05;100.00;103084.41;5037795;28;20040;-84
2023/12/18 10:12:38;;;;;;;26.33;12.35;;;;;;;6.12;100.00;103094.47;5022007;28;20030;-83
2023/12/18 10:15:06;;;;;;;34.75;12.25;;;;;;;6.06;100.00;103075.53;5038164;28;20092;-83
2023/12/18 10:17:33;;;;;;;26.95;13.18;;;;;;;6.17;100.00;103080.88;5040084;28;20039;-83
2023/12/18 10:20:02;;;;;;;27.98;13.32;;;;;;;6.19;100.00;103078.97;5024012;28;20160;-83
2023/12/18 10:22:28;;;;;;;26.58;11.70;;;;;;;6.18;100.00;103073.78;5009325;28;20501;-83
2023/12/18 10:24:53;;;;;;;25.17;11.27;;;;;;;6.22;100.00;103081.38;5013780;28;20026;-83
2023/12/18 10:27:19;;;;;;;25.17;10.50;;;;;;;6.19;100.00;103062.22;5033207;28;20444;-83
2023/12/18 10:29:45;;;;;;;27.27;11.63;;;;;;;6.29;100.00;103073.84;5015467;28;20107;-83
2023/12/18 10:32:11;;;;;;;23.05;12.45;;;;;;;6.34;100.00;103069.03;5020393;28;20116;-83
2023/12/18 10:34:37;;;;;;;29.00;12.05;;;;;;;6.40;100.00;103084.50;5034757;28;20535;-84
2023/12/18 10:37:03;;;;;;;26.23;11.60;;;;;;;6.37;100.00;103071.47;5036732;28;20037;-83
2023/12/18 10:39:30;;;;;;;25.30;12.32;;;;;;;6.39;100.00;103076.63;5022674;28;20037;-83
2023/12/18 10:42:04;;;;;;;25.55;10.43;;;;;;;6.32;100.00;103063.84;5039117;28;20383;-83
2023/12/18 10:44:32;;;;;;;27.27;13.02;;;;;;;6.38;100.00;103067.84;5032211;28;20033;-84
2023/12/18 10:46:59;;;;;;;26.98;13.15;;;;;;;6.34;100.00;103056.63;5038634;28;20029;-83
2023/12/18 10:49:27;;;;;;;25.55;12.50;;;;;;;6.40;100.00;103055.34;5037624;28;20029;-83
2023/12/18 10:51:55;;;;;;;24.33;11.40;;;;;;;6.40;100.00;103047.38;5040570;28;20115;-83
2023/12/18 10:54:21;;;;;;;31.58;14.00;;;;;;;6.39;100.00;103048.31;5036954;28;20381;-83
2023/12/18 10:56:47;;;;;;;28.67;13.88;;;;;;;6.41;100.00;103053.53;5022143;28;20057;-83
2023/12/18 10:59:16;;;;;;;25.25;11.40;;;;;;;6.36;100.00;103041.44;5033067;28;20037;-83
2023/12/18 11:01:41;;;;;;;24.75;12.30;;;;;;;6.40;100.00;103028.81;5040561;28;20033;-83